createdAt,value
2023-01-31T00:01:12.134Z,0
2023-01-31T00:02:28.426Z,0
2023-01-31T00:03:44.723Z,0
2023-01-31T00:05:01.007Z,0
2023-01-31T00:06:17.312Z,0
2023-01-31T00:07:32.629Z,0
2023-01-31T00:08:48.906Z,0
2023-01-31T00:10:05.203Z,0
2023-01-31T00:11:21.504Z,0
2023-01-31T00:12:37.798Z,0
2023-01-31T00:13:54.080Z,0
2023-01-31T00:15:10.373Z,0
2023-01-31T00:16:26.686Z,0
2023-01-31T00:17:42.975Z,0
2023-01-31T00:18:59.266Z,0
2023-01-31T00:20:15.558Z,0
2023-01-31T00:21:31.862Z,0
2023-01-31T00:22:48.139Z,0
2023-01-31T00:24:03.465Z,0
2023-01-31T00:25:19.755Z,0
2023-01-31T00:26:36.046Z,0
2023-01-31T00:27:52.346Z,0
2023-01-31T00:29:08.642Z,0
2023-01-31T00:30:24.930Z,0
2023-01-31T00:31:41.226Z,0
2023-01-31T00:32:57.512Z,0
2023-01-31T00:34:13.815Z,0
2023-01-31T00:35:30.113Z,0
2023-01-31T00:36:46.420Z,0
2023-01-31T00:38:02.701Z,0
2023-01-31T00:39:19.001Z,0
2023-01-31T00:40:34.307Z,0
2023-01-31T00:41:50.600Z,0
2023-01-31T00:43:06.905Z,0
2023-01-31T00:44:23.177Z,0
2023-01-31T00:45:39.471Z,0
2023-01-31T00:46:55.769Z,0
2023-01-31T00:48:12.072Z,0
2023-01-31T00:49:28.366Z,0
2023-01-31T00:50:44.672Z,0
2023-01-31T00:52:00.956Z,0
2023-01-31T00:53:17.241Z,0
2023-01-31T00:54:33.533Z,0
2023-01-31T00:55:49.839Z,0
2023-01-31T00:57:05.149Z,0
2023-01-31T00:58:21.443Z,0
2023-01-31T00:59:37.725Z,0
2023-01-31T01:00:54.037Z,0
2023-01-31T01:02:10.333Z,0
2023-01-31T01:03:26.620Z,0
2023-01-31T01:05:59.207Z,0
2023-01-31T01:07:15.496Z,0
2023-01-31T01:08:31.794Z,0
2023-01-31T01:09:48.094Z,0
2023-01-31T01:11:04.380Z,0
2023-01-31T01:12:20.670Z,0
2023-01-31T01:13:35.982Z,0
2023-01-31T01:14:52.286Z,0
2023-01-31T01:16:08.581Z,0
2023-01-31T01:17:24.871Z,0
2023-01-31T01:18:41.179Z,0
2023-01-31T01:19:57.473Z,0
2023-01-31T01:21:13.746Z,0
2023-01-31T01:22:30.052Z,0
2023-01-31T01:23:46.351Z,0
2023-01-31T01:26:18.948Z,0
2023-01-31T01:27:35.224Z,0
2023-01-31T01:28:51.527Z,0
2023-01-31T01:30:06.844Z,0
2023-01-31T01:31:23.120Z,0
2023-01-31T01:32:39.421Z,0
2023-01-31T01:33:55.732Z,0
2023-01-31T01:35:12.018Z,0
2023-01-31T01:36:28.297Z,0
2023-01-31T01:37:44.596Z,0
2023-01-31T01:39:00.894Z,0
2023-01-31T01:40:17.184Z,0
2023-01-31T01:41:33.474Z,0
2023-01-31T01:42:49.786Z,0
2023-01-31T01:44:06.076Z,0
2023-01-31T01:45:22.375Z,0
2023-01-31T01:46:37.693Z,0
2023-01-31T01:47:53.963Z,0
2023-01-31T01:49:10.272Z,0
2023-01-31T01:50:26.566Z,0
2023-01-31T01:51:42.872Z,0
2023-01-31T01:52:59.140Z,0
2023-01-31T01:54:15.448Z,0
2023-01-31T01:55:31.731Z,0
2023-01-31T01:56:48.040Z,0
2023-01-31T01:58:04.330Z,0
2023-01-31T01:59:20.616Z,0
2023-01-31T02:00:36.918Z,0
2023-01-31T02:01:53.202Z,0
2023-01-31T02:03:08.512Z,0
2023-01-31T02:04:24.813Z,0
2023-01-31T02:05:41.108Z,0
2023-01-31T02:06:57.399Z,0
2023-01-31T02:08:13.707Z,0
2023-01-31T02:09:29.992Z,0
2023-01-31T02:10:46.307Z,0
2023-01-31T02:12:02.594Z,0
2023-01-31T02:13:18.880Z,0
2023-01-31T02:14:35.162Z,0
2023-01-31T02:15:51.469Z,0
2023-01-31T02:17:07.772Z,0
2023-01-31T02:18:24.048Z,0
2023-01-31T02:19:39.361Z,0
2023-01-31T02:22:11.966Z,0
2023-01-31T02:23:28.256Z,0
2023-01-31T02:24:44.535Z,0
2023-01-31T02:26:00.834Z,0
2023-01-31T02:27:17.131Z,0
2023-01-31T02:28:33.426Z,0
2023-01-31T02:29:49.725Z,0
2023-01-31T02:31:06.022Z,0
2023-01-31T02:32:22.317Z,0
2023-01-31T02:33:38.608Z,0
2023-01-31T02:34:54.907Z,0
2023-01-31T02:36:10.203Z,0
2023-01-31T02:37:26.505Z,0
2023-01-31T02:38:42.812Z,0
2023-01-31T02:39:59.085Z,0
2023-01-31T02:41:15.396Z,0
2023-01-31T02:42:31.681Z,0
2023-01-31T02:45:04.278Z,0
2023-01-31T02:46:20.557Z,0
2023-01-31T02:47:36.873Z,0
2023-01-31T02:48:53.165Z,0
2023-01-31T02:50:09.458Z,0
2023-01-31T02:51:25.741Z,0
2023-01-31T02:52:41.059Z,0
2023-01-31T02:53:57.348Z,0
2023-01-31T02:55:13.652Z,0
2023-01-31T02:56:29.953Z,0
2023-01-31T02:57:46.236Z,0
2023-01-31T02:59:02.522Z,0
2023-01-31T03:00:17.857Z,0
2023-01-31T03:01:34.141Z,0
2023-01-31T03:02:50.438Z,0
2023-01-31T03:04:06.736Z,0
2023-01-31T03:05:23.010Z,0
2023-01-31T03:06:39.323Z,0
2023-01-31T03:07:55.616Z,0
2023-01-31T03:09:11.911Z,0
2023-01-31T03:10:28.204Z,0
2023-01-31T03:11:44.500Z,0
2023-01-31T03:13:00.785Z,0
2023-01-31T03:14:17.092Z,0
2023-01-31T03:15:33.378Z,0
2023-01-31T03:16:48.693Z,0
2023-01-31T03:18:04.996Z,0
2023-01-31T03:19:21.286Z,0
2023-01-31T03:20:37.575Z,0
2023-01-31T03:21:53.877Z,0
2023-01-31T03:23:10.175Z,0
2023-01-31T03:24:26.446Z,0
2023-01-31T03:25:42.750Z,0
2023-01-31T03:26:59.052Z,0
2023-01-31T03:28:15.349Z,0
2023-01-31T03:29:31.640Z,0
2023-01-31T03:30:47.918Z,0
2023-01-31T03:32:04.217Z,0
2023-01-31T03:33:19.533Z,0
2023-01-31T03:34:35.836Z,0
2023-01-31T03:35:52.143Z,0
2023-01-31T03:37:08.421Z,0
2023-01-31T03:38:24.715Z,0
2023-01-31T03:39:41.011Z,0
2023-01-31T03:40:57.303Z,0
2023-01-31T03:42:13.598Z,0
2023-01-31T03:43:29.894Z,0
2023-01-31T03:44:46.174Z,0
2023-01-31T03:46:02.466Z,0
2023-01-31T03:47:18.781Z,0
2023-01-31T03:48:35.068Z,0
2023-01-31T03:49:50.365Z,0
2023-01-31T03:51:06.672Z,0
2023-01-31T03:52:22.963Z,0
2023-01-31T03:53:39.253Z,0
2023-01-31T03:54:55.560Z,0
2023-01-31T03:56:11.864Z,0
2023-01-31T03:57:28.135Z,0
2023-01-31T03:58:44.449Z,0
2023-01-31T04:00:00.728Z,0
2023-01-31T04:01:17.030Z,0
2023-01-31T04:02:33.322Z,0
2023-01-31T04:03:49.626Z,0
2023-01-31T04:05:05.900Z,0
2023-01-31T04:06:21.223Z,0
2023-01-31T04:07:37.529Z,0
2023-01-31T04:08:53.810Z,0
2023-01-31T04:10:10.120Z,0
2023-01-31T04:11:26.409Z,0
2023-01-31T04:12:42.694Z,0
2023-01-31T04:13:58.983Z,0
2023-01-31T04:15:15.286Z,0
2023-01-31T04:16:31.565Z,0
2023-01-31T04:17:47.878Z,0
2023-01-31T04:19:04.153Z,0
2023-01-31T04:20:20.479Z,0
2023-01-31T04:21:36.768Z,0
2023-01-31T04:22:52.072Z,0
2023-01-31T04:24:08.350Z,0
2023-01-31T04:25:24.673Z,0
2023-01-31T04:26:40.943Z,0
2023-01-31T04:27:57.247Z,0
2023-01-31T04:29:13.544Z,0
2023-01-31T04:30:29.819Z,0
2023-01-31T04:31:46.142Z,0
2023-01-31T04:33:02.410Z,0
2023-01-31T04:34:18.719Z,0
2023-01-31T04:35:35.004Z,0
2023-01-31T04:36:51.304Z,0
2023-01-31T04:38:07.588Z,0
2023-01-31T04:39:22.923Z,0
2023-01-31T04:40:39.211Z,0
2023-01-31T04:41:55.507Z,0
2023-01-31T04:43:11.789Z,0
2023-01-31T04:44:28.074Z,0
2023-01-31T04:45:44.386Z,0
2023-01-31T04:47:00.664Z,0
2023-01-31T04:48:16.971Z,0
2023-01-31T04:49:33.252Z,0
2023-01-31T04:50:49.568Z,0
2023-01-31T04:52:05.864Z,0
2023-01-31T04:54:38.448Z,0
2023-01-31T04:55:53.746Z,0
2023-01-31T04:57:10.042Z,0
2023-01-31T04:58:26.338Z,0
2023-01-31T04:59:42.645Z,0
2023-01-31T05:00:58.927Z,0
2023-01-31T05:02:15.213Z,0
2023-01-31T05:03:31.527Z,0
2023-01-31T05:04:47.808Z,0
2023-01-31T05:06:04.114Z,0
2023-01-31T05:07:20.395Z,0
2023-01-31T05:08:36.702Z,0
2023-01-31T05:09:52.983Z,0
2023-01-31T05:11:09.293Z,0
2023-01-31T05:12:24.607Z,0
2023-01-31T05:13:40.889Z,0
2023-01-31T05:14:57.197Z,0
2023-01-31T05:16:13.483Z,0
2023-01-31T05:17:29.792Z,0
2023-01-31T05:18:46.059Z,0
2023-01-31T05:20:02.372Z,0
2023-01-31T05:21:18.651Z,0
2023-01-31T05:22:34.955Z,0
2023-01-31T05:23:51.246Z,0
2023-01-31T05:25:07.546Z,0
2023-01-31T05:26:23.849Z,0
2023-01-31T05:27:40.118Z,0
2023-01-31T05:28:55.447Z,0
2023-01-31T05:30:11.731Z,0
2023-01-31T05:31:28.029Z,0
2023-01-31T05:32:44.330Z,0
2023-01-31T05:34:00.612Z,0
2023-01-31T05:35:16.901Z,0
2023-01-31T05:36:33.207Z,0
2023-01-31T05:37:49.494Z,0
2023-01-31T05:39:05.789Z,0
2023-01-31T05:40:22.082Z,0
2023-01-31T05:41:38.404Z,0
2023-01-31T05:42:54.687Z,0
2023-01-31T05:44:10.964Z,0
2023-01-31T05:45:26.292Z,0
2023-01-31T05:46:42.601Z,0
2023-01-31T05:47:58.879Z,0
2023-01-31T05:49:15.186Z,0
2023-01-31T05:50:31.479Z,0
2023-01-31T05:51:47.745Z,0
2023-01-31T05:53:04.041Z,0
2023-01-31T05:54:20.346Z,0
2023-01-31T05:55:36.630Z,0
2023-01-31T05:56:52.937Z,0
2023-01-31T05:58:09.217Z,0
2023-01-31T05:59:25.532Z,0
2023-01-31T06:00:41.829Z,0
2023-01-31T06:01:57.133Z,0
2023-01-31T06:03:13.426Z,0
2023-01-31T06:04:29.719Z,0
2023-01-31T06:05:46.025Z,0
2023-01-31T06:07:02.298Z,0
2023-01-31T06:08:18.591Z,0
2023-01-31T06:09:34.888Z,0
2023-01-31T06:10:51.209Z,0
2023-01-31T06:12:07.489Z,0
2023-01-31T06:13:23.783Z,0
2023-01-31T06:14:40.084Z,0
2023-01-31T06:15:56.373Z,0
2023-01-31T06:17:12.601Z,1
2023-01-31T06:18:27.914Z,0
2023-01-31T06:19:44.176Z,1
2023-01-31T06:21:00.401Z,1
2023-01-31T06:22:16.712Z,0
2023-01-31T06:23:33.002Z,0
2023-01-31T06:24:49.300Z,0
2023-01-31T06:26:05.543Z,2
2023-01-31T06:27:21.780Z,1
2023-01-31T06:28:38.037Z,1
2023-01-31T06:29:54.339Z,0
2023-01-31T06:31:10.597Z,1
2023-01-31T06:32:26.822Z,1
2023-01-31T06:33:43.071Z,2
2023-01-31T06:34:58.326Z,3
2023-01-31T06:36:14.567Z,5
2023-01-31T06:37:30.826Z,2
2023-01-31T06:38:47.053Z,4
2023-01-31T06:40:03.291Z,9
2023-01-31T06:41:19.535Z,11
2023-01-31T06:42:35.782Z,7
2023-01-31T06:43:52.030Z,10
2023-01-31T06:45:08.237Z,18
2023-01-31T06:46:24.482Z,25
2023-01-31T06:47:40.732Z,21
2023-01-31T06:48:56.966Z,29
2023-01-31T06:50:13.203Z,37
2023-01-31T06:51:28.465Z,48
2023-01-31T06:52:44.697Z,48
2023-01-31T06:54:00.000Z,48
2023-01-31T06:55:17.196Z,46
2023-01-31T06:56:33.442Z,44
2023-01-31T06:57:49.669Z,49
2023-01-31T06:59:05.922Z,62
2023-01-31T07:00:22.156Z,67
2023-01-31T07:01:38.400Z,69
2023-01-31T07:02:54.635Z,77
2023-01-31T07:04:10.865Z,73
2023-01-31T07:05:27.128Z,79
2023-01-31T07:06:43.347Z,89
2023-01-31T07:07:58.597Z,96
2023-01-31T07:09:14.846Z,95
2023-01-31T07:10:31.103Z,99
2023-01-31T07:11:47.323Z,130
2023-01-31T07:13:03.567Z,175
2023-01-31T07:14:19.820Z,183
2023-01-31T07:15:35.081Z,181
2023-01-31T07:16:51.323Z,159
2023-01-31T07:18:07.546Z,162
2023-01-31T07:19:23.786Z,191
2023-01-31T07:20:40.049Z,216
2023-01-31T07:21:56.278Z,216
2023-01-31T07:23:12.508Z,207
2023-01-31T07:24:28.759Z,204
2023-01-31T07:27:01.228Z,247
2023-01-31T07:28:17.469Z,264
2023-01-31T07:29:33.726Z,261
2023-01-31T07:30:49.953Z,254
2023-01-31T07:32:05.219Z,230
2023-01-31T07:33:21.470Z,218
2023-01-31T07:34:37.702Z,234
2023-01-31T07:35:53.941Z,242
2023-01-31T07:37:10.194Z,254
2023-01-31T07:38:26.426Z,249
2023-01-31T07:39:42.667Z,272
2023-01-31T07:40:58.895Z,314
2023-01-31T07:42:15.136Z,321
2023-01-31T07:43:31.376Z,349
2023-01-31T07:44:47.626Z,421
2023-01-31T07:46:03.869Z,454
2023-01-31T07:47:20.110Z,478
2023-01-31T07:48:35.365Z,593
2023-01-31T07:49:51.611Z,691
2023-01-31T07:51:07.859Z,827
2023-01-31T07:52:24.080Z,1045
2023-01-31T07:53:40.313Z,1160
2023-01-31T07:54:56.563Z,1248
2023-01-31T07:56:12.817Z,1285
2023-01-31T07:57:29.046Z,1318
2023-01-31T07:58:45.287Z,1473
2023-01-31T08:00:01.517Z,1697
2023-01-31T08:01:17.757Z,1873
2023-01-31T08:02:34.013Z,2047
2023-01-31T08:03:50.252Z,2273
2023-01-31T08:05:05.510Z,2621
2023-01-31T08:06:21.744Z,2527
2023-01-31T08:07:37.978Z,2535
2023-01-31T08:08:54.225Z,2232
2023-01-31T08:10:10.454Z,2546
2023-01-31T08:11:26.703Z,2137
2023-01-31T08:12:42.944Z,2413
2023-01-31T08:13:59.174Z,2659
2023-01-31T08:15:15.422Z,2881
2023-01-31T08:16:31.675Z,3115
2023-01-31T08:17:47.903Z,3080
2023-01-31T08:19:04.146Z,3214
2023-01-31T08:20:20.386Z,2348
2023-01-31T08:21:35.651Z,1990
2023-01-31T08:22:51.874Z,1732
2023-01-31T08:24:08.120Z,1616
2023-01-31T08:25:24.372Z,1702
2023-01-31T08:26:40.600Z,2015
2023-01-31T08:27:56.833Z,2071
2023-01-31T08:29:13.089Z,2454
2023-01-31T08:30:29.327Z,2852
2023-01-31T08:31:45.572Z,2838
2023-01-31T08:33:01.807Z,2937
2023-01-31T08:34:18.039Z,3148
2023-01-31T08:35:34.273Z,3370
2023-01-31T08:36:50.513Z,2548
2023-01-31T08:38:05.774Z,2649
2023-01-31T08:39:22.020Z,2211
2023-01-31T08:40:38.269Z,1862
2023-01-31T08:41:54.511Z,1623
2023-01-31T08:43:10.738Z,1506
2023-01-31T08:44:26.994Z,1435
2023-01-31T08:45:43.226Z,1357
2023-01-31T08:46:59.476Z,1286
2023-01-31T08:48:15.694Z,1240
2023-01-31T08:49:31.933Z,1236
2023-01-31T08:50:48.203Z,1237
2023-01-31T08:52:04.425Z,1204
2023-01-31T08:53:20.667Z,1148
2023-01-31T08:54:35.928Z,1121
2023-01-31T08:55:52.168Z,1100
2023-01-31T08:57:08.405Z,1014
2023-01-31T08:58:24.659Z,958
2023-01-31T08:59:40.881Z,963
2023-01-31T09:00:57.115Z,930
2023-01-31T09:02:13.355Z,906
2023-01-31T09:03:29.609Z,855
2023-01-31T09:04:45.854Z,932
2023-01-31T09:06:02.077Z,978
2023-01-31T09:07:18.335Z,1036
2023-01-31T09:08:34.555Z,1050
2023-01-31T09:09:50.825Z,990
2023-01-31T09:11:07.038Z,939
2023-01-31T09:12:22.295Z,887
2023-01-31T09:13:38.533Z,910
2023-01-31T09:14:54.786Z,948
2023-01-31T09:16:11.019Z,1008
2023-01-31T09:17:27.270Z,1040
2023-01-31T09:18:43.501Z,1078
2023-01-31T09:19:59.751Z,1077
2023-01-31T09:21:15.999Z,1072
2023-01-31T09:22:32.236Z,1069
2023-01-31T09:23:48.489Z,1085
2023-01-31T09:25:04.721Z,1067
2023-01-31T09:26:20.956Z,1043
2023-01-31T09:27:37.187Z,1103
2023-01-31T09:28:52.431Z,1209
2023-01-31T09:30:08.681Z,1196
2023-01-31T09:31:24.939Z,1117
2023-01-31T09:32:41.186Z,995
2023-01-31T09:33:57.418Z,921
2023-01-31T09:35:13.651Z,977
2023-01-31T09:36:29.907Z,1056
2023-01-31T09:37:46.132Z,1133
2023-01-31T09:39:02.374Z,1156
2023-01-31T09:40:18.599Z,1157
2023-01-31T09:41:34.857Z,1144
2023-01-31T09:42:51.093Z,1134
2023-01-31T09:44:07.344Z,1147
2023-01-31T09:45:22.593Z,1241
2023-01-31T09:46:38.838Z,1281
2023-01-31T09:47:55.062Z,1278
2023-01-31T09:49:11.302Z,1255
2023-01-31T09:50:27.534Z,1205
2023-01-31T09:51:43.796Z,1092
2023-01-31T09:53:00.022Z,1016
2023-01-31T09:54:16.288Z,969
2023-01-31T09:55:32.498Z,981
2023-01-31T09:56:48.765Z,991
2023-01-31T09:58:04.982Z,1012
2023-01-31T09:59:21.226Z,1053
2023-01-31T10:00:37.467Z,1169
2023-01-31T10:01:52.728Z,1289
2023-01-31T10:03:08.973Z,1223
2023-01-31T10:04:25.212Z,1060
2023-01-31T10:05:41.440Z,986
2023-01-31T10:06:57.694Z,945
2023-01-31T10:08:13.918Z,953
2023-01-31T10:09:30.172Z,1037
2023-01-31T10:10:46.411Z,1211
2023-01-31T10:12:02.645Z,1449
2023-01-31T10:13:18.895Z,1475
2023-01-31T10:14:35.127Z,1281
2023-01-31T10:15:51.377Z,1130
2023-01-31T10:17:07.606Z,1175
2023-01-31T10:18:22.869Z,1444
2023-01-31T10:19:39.103Z,1496
2023-01-31T10:20:55.341Z,1330
2023-01-31T10:22:11.580Z,1226
2023-01-31T10:23:27.833Z,1289
2023-01-31T10:24:44.084Z,1529
2023-01-31T10:26:00.315Z,1674
2023-01-31T10:27:16.544Z,1581
2023-01-31T10:28:32.791Z,1634
2023-01-31T10:29:49.019Z,1729
2023-01-31T10:31:05.265Z,1691
2023-01-31T10:32:21.505Z,1730
2023-01-31T10:33:37.740Z,1691
2023-01-31T10:34:53.010Z,1414
2023-01-31T10:36:09.253Z,1010
2023-01-31T10:37:25.493Z,961
2023-01-31T10:38:41.719Z,914
2023-01-31T10:39:57.973Z,626
2023-01-31T10:41:14.226Z,835
2023-01-31T10:42:30.444Z,852
2023-01-31T10:43:46.696Z,879
2023-01-31T10:45:02.935Z,1427
2023-01-31T10:46:19.177Z,1958
2023-01-31T10:47:35.403Z,2127
2023-01-31T10:48:51.650Z,1940
2023-01-31T10:50:07.896Z,1663
2023-01-31T10:51:23.137Z,1766
2023-01-31T10:52:39.403Z,2030
2023-01-31T10:53:55.627Z,2055
2023-01-31T10:55:11.874Z,1820
2023-01-31T10:56:28.107Z,1512
2023-01-31T10:57:44.343Z,1144
2023-01-31T10:59:00.581Z,857
2023-01-31T11:00:16.826Z,663
2023-01-31T11:01:33.080Z,1047
2023-01-31T11:02:49.315Z,1254
2023-01-31T11:04:05.561Z,1215
2023-01-31T11:05:21.801Z,1075
2023-01-31T11:07:54.266Z,757
2023-01-31T11:09:09.536Z,639
2023-01-31T11:10:25.775Z,564
2023-01-31T11:11:41.993Z,691
2023-01-31T11:12:58.262Z,671
2023-01-31T11:14:14.492Z,527
2023-01-31T11:15:30.736Z,537
2023-01-31T11:16:46.979Z,756
2023-01-31T11:18:03.208Z,996
2023-01-31T11:19:19.447Z,1092
2023-01-31T11:20:35.693Z,933
2023-01-31T11:21:51.931Z,916
2023-01-31T11:23:08.168Z,772
2023-01-31T11:24:24.424Z,749
2023-01-31T11:25:39.661Z,689
2023-01-31T11:26:55.911Z,651
2023-01-31T11:28:12.162Z,563
2023-01-31T11:29:28.387Z,503
2023-01-31T11:30:43.646Z,488
2023-01-31T11:31:59.894Z,448
2023-01-31T11:33:16.152Z,519
2023-01-31T11:34:32.359Z,697
2023-01-31T11:35:48.616Z,923
2023-01-31T11:37:04.842Z,755
2023-01-31T11:38:21.091Z,626
2023-01-31T11:39:37.344Z,424
2023-01-31T11:40:53.579Z,395
2023-01-31T11:42:09.802Z,377
2023-01-31T11:43:26.058Z,388
2023-01-31T11:44:42.298Z,462
2023-01-31T11:45:58.537Z,570
2023-01-31T11:47:13.797Z,470
2023-01-31T11:48:30.032Z,390
2023-01-31T11:49:46.290Z,434
2023-01-31T11:51:02.521Z,545
2023-01-31T11:52:18.759Z,530
2023-01-31T11:53:34.995Z,390
2023-01-31T11:54:51.225Z,413
2023-01-31T11:56:07.476Z,600
2023-01-31T11:57:23.720Z,718
2023-01-31T11:58:39.941Z,563
2023-01-31T11:59:56.182Z,570
2023-01-31T12:01:12.437Z,638
2023-01-31T12:02:28.678Z,618
2023-01-31T12:03:43.924Z,597
2023-01-31T12:05:00.164Z,546
2023-01-31T12:06:16.402Z,503
2023-01-31T12:07:32.654Z,463
2023-01-31T12:08:48.895Z,396
2023-01-31T12:10:05.139Z,300
2023-01-31T12:11:21.377Z,219
2023-01-31T12:12:37.610Z,257
2023-01-31T12:13:53.851Z,377
2023-01-31T12:15:10.083Z,514
2023-01-31T12:16:26.339Z,566
2023-01-31T12:17:42.584Z,605
2023-01-31T12:18:58.819Z,559
2023-01-31T12:20:14.076Z,487
2023-01-31T12:21:30.318Z,411
2023-01-31T12:22:46.540Z,425
2023-01-31T12:24:02.782Z,435
2023-01-31T12:25:19.037Z,402
2023-01-31T12:26:35.266Z,617
2023-01-31T12:27:51.524Z,857
2023-01-31T12:29:07.752Z,787
2023-01-31T12:30:23.984Z,818
2023-01-31T12:31:40.230Z,956
2023-01-31T12:32:56.468Z,952
2023-01-31T12:34:12.736Z,1033
2023-01-31T12:35:28.963Z,944
2023-01-31T12:36:44.200Z,761
2023-01-31T12:38:00.444Z,586
2023-01-31T12:39:16.694Z,485
2023-01-31T12:40:32.922Z,440
2023-01-31T12:41:49.184Z,394
2023-01-31T12:43:05.405Z,355
2023-01-31T12:44:21.652Z,362
2023-01-31T12:45:37.896Z,389
2023-01-31T12:46:54.150Z,499
2023-01-31T12:48:10.375Z,504
2023-01-31T12:49:26.618Z,444
2023-01-31T12:50:42.852Z,388
2023-01-31T12:51:59.087Z,501
2023-01-31T12:53:14.360Z,651
2023-01-31T12:54:30.593Z,609
2023-01-31T12:55:46.823Z,554
2023-01-31T12:57:03.064Z,607
2023-01-31T12:58:19.327Z,701
2023-01-31T12:59:35.560Z,748
2023-01-31T13:00:51.788Z,768
2023-01-31T13:02:08.021Z,880
2023-01-31T13:03:24.266Z,1055
2023-01-31T13:04:40.522Z,1086
2023-01-31T13:05:56.760Z,926
2023-01-31T13:07:12.983Z,748
2023-01-31T13:08:29.231Z,742
2023-01-31T13:09:44.495Z,651
2023-01-31T13:11:00.738Z,551
2023-01-31T13:12:16.962Z,495
2023-01-31T13:13:33.202Z,570
2023-01-31T13:14:49.471Z,564
2023-01-31T13:16:05.715Z,546
2023-01-31T13:17:21.924Z,496
2023-01-31T13:18:38.178Z,414
2023-01-31T13:19:54.410Z,383
2023-01-31T13:21:10.667Z,327
2023-01-31T13:22:26.885Z,235
2023-01-31T13:23:43.127Z,217
2023-01-31T13:24:59.395Z,274
2023-01-31T13:26:14.633Z,276
2023-01-31T13:27:30.890Z,380
2023-01-31T13:28:47.104Z,450
2023-01-31T13:30:03.351Z,432
2023-01-31T13:31:19.584Z,456
2023-01-31T13:32:35.825Z,522
2023-01-31T13:33:52.078Z,578
2023-01-31T13:35:08.332Z,550
2023-01-31T13:36:24.557Z,525
2023-01-31T13:38:57.030Z,527
2023-01-31T13:40:13.296Z,616
2023-01-31T13:41:29.521Z,674
2023-01-31T13:42:44.769Z,687
2023-01-31T13:44:01.023Z,629
2023-01-31T13:45:17.242Z,675
2023-01-31T13:46:33.501Z,726
2023-01-31T13:47:49.723Z,724
2023-01-31T13:49:05.963Z,724
2023-01-31T13:50:22.205Z,698
2023-01-31T13:51:38.452Z,573
2023-01-31T13:52:54.701Z,548
2023-01-31T13:54:10.932Z,570
2023-01-31T13:55:27.166Z,619
2023-01-31T13:57:59.648Z,516
2023-01-31T13:59:14.909Z,512
2023-01-31T14:00:31.146Z,552
2023-01-31T14:01:47.399Z,539
2023-01-31T14:03:03.637Z,494
2023-01-31T14:04:19.878Z,487
2023-01-31T14:05:36.119Z,447
2023-01-31T14:06:52.361Z,399
2023-01-31T14:08:08.600Z,380
2023-01-31T14:09:24.838Z,380
2023-01-31T14:10:41.062Z,377
2023-01-31T14:11:57.323Z,362
2023-01-31T14:13:13.564Z,344
2023-01-31T14:14:29.787Z,326
2023-01-31T14:15:45.059Z,284
2023-01-31T14:17:01.292Z,256
2023-01-31T14:18:17.522Z,251
2023-01-31T14:19:33.762Z,266
2023-01-31T14:20:50.015Z,371
2023-01-31T14:22:06.241Z,438
2023-01-31T14:23:22.502Z,463
2023-01-31T14:24:38.734Z,595
2023-01-31T14:25:54.970Z,465
2023-01-31T14:27:11.218Z,313
2023-01-31T14:28:27.460Z,274
2023-01-31T14:29:43.697Z,247
2023-01-31T14:30:59.940Z,303
2023-01-31T14:32:15.189Z,289
2023-01-31T14:33:31.428Z,302
2023-01-31T14:34:47.671Z,274
2023-01-31T14:36:03.908Z,251
2023-01-31T14:37:20.146Z,243
2023-01-31T14:38:36.390Z,238
2023-01-31T14:39:52.623Z,226
2023-01-31T14:41:08.880Z,273
2023-01-31T14:42:25.108Z,344
2023-01-31T14:43:41.357Z,309
2023-01-31T14:44:57.585Z,244
2023-01-31T14:46:13.837Z,220
2023-01-31T14:47:30.084Z,272
2023-01-31T14:48:45.330Z,277
2023-01-31T14:50:01.575Z,278
2023-01-31T14:51:17.805Z,241
2023-01-31T14:52:34.058Z,273
2023-01-31T14:53:50.289Z,205
2023-01-31T14:55:06.525Z,231
2023-01-31T14:56:22.765Z,318
2023-01-31T14:57:39.007Z,297
2023-01-31T14:58:55.245Z,291
2023-01-31T15:00:11.484Z,287
2023-01-31T15:01:27.743Z,262
2023-01-31T15:02:43.968Z,216
2023-01-31T15:04:00.212Z,243
2023-01-31T15:05:15.466Z,255
2023-01-31T15:06:31.721Z,207
2023-01-31T15:07:47.942Z,199
2023-01-31T15:09:04.188Z,177
2023-01-31T15:11:36.664Z,260
2023-01-31T15:12:52.910Z,240
2023-01-31T15:14:09.150Z,198
2023-01-31T15:15:25.389Z,225
2023-01-31T15:16:41.635Z,231
2023-01-31T15:17:57.875Z,214
2023-01-31T15:19:14.105Z,181
2023-01-31T15:20:30.360Z,198
2023-01-31T15:21:45.611Z,173
2023-01-31T15:23:01.849Z,187
2023-01-31T15:24:18.090Z,198
2023-01-31T15:25:34.323Z,190
2023-01-31T15:26:50.584Z,182
2023-01-31T15:28:06.813Z,184
2023-01-31T15:29:23.045Z,180
2023-01-31T15:30:39.290Z,182
2023-01-31T15:31:55.536Z,156
2023-01-31T15:33:11.780Z,147
2023-01-31T15:34:28.017Z,137
2023-01-31T15:35:44.249Z,142
2023-01-31T15:37:00.494Z,132
2023-01-31T15:38:15.750Z,121
2023-01-31T15:39:31.994Z,124
2023-01-31T15:40:48.238Z,130
2023-01-31T15:42:04.474Z,118
2023-01-31T15:43:20.718Z,105
2023-01-31T15:44:36.948Z,95
2023-01-31T15:45:52.219Z,89
2023-01-31T15:47:08.453Z,82
2023-01-31T15:48:24.690Z,71
2023-01-31T15:49:40.935Z,61
2023-01-31T15:50:57.171Z,48
2023-01-31T15:52:13.415Z,42
2023-01-31T15:53:29.645Z,30
2023-01-31T15:54:45.891Z,27
2023-01-31T15:56:02.141Z,23
2023-01-31T15:57:18.378Z,19
2023-01-31T15:58:34.613Z,19
2023-01-31T15:59:50.851Z,18
2023-01-31T16:01:07.107Z,16
2023-01-31T16:02:22.363Z,11
2023-01-31T16:03:38.601Z,11
2023-01-31T16:04:54.835Z,11
2023-01-31T16:06:11.072Z,11
2023-01-31T16:07:27.318Z,10
2023-01-31T16:08:43.559Z,10
2023-01-31T16:09:59.802Z,5
2023-01-31T16:11:16.031Z,3
2023-01-31T16:12:32.268Z,2
2023-01-31T16:13:48.527Z,3
2023-01-31T16:15:04.756Z,3
2023-01-31T16:16:21.000Z,2
2023-01-31T16:17:37.234Z,2
2023-01-31T16:18:52.492Z,1
2023-01-31T16:20:08.733Z,1
2023-01-31T16:21:24.974Z,1
2023-01-31T16:22:41.266Z,0
2023-01-31T16:23:57.573Z,0
2023-01-31T16:25:13.854Z,0
2023-01-31T16:26:30.152Z,0
2023-01-31T16:27:46.446Z,0
2023-01-31T16:29:02.749Z,0
2023-01-31T16:30:19.035Z,0
2023-01-31T16:31:35.331Z,0
2023-01-31T16:32:51.616Z,0
2023-01-31T16:34:07.924Z,0
2023-01-31T16:35:23.225Z,0
2023-01-31T16:36:39.519Z,0
2023-01-31T16:37:55.817Z,0
2023-01-31T16:39:12.111Z,0
2023-01-31T16:40:28.414Z,0
2023-01-31T16:41:44.700Z,0
2023-01-31T16:43:00.996Z,0
2023-01-31T16:44:17.284Z,0
2023-01-31T16:45:33.593Z,0
2023-01-31T16:46:49.870Z,0
2023-01-31T16:48:06.180Z,0
2023-01-31T16:49:22.466Z,0
2023-01-31T16:50:38.774Z,0
2023-01-31T16:51:54.062Z,0
2023-01-31T16:53:10.360Z,0
2023-01-31T16:54:26.654Z,0
2023-01-31T16:55:42.962Z,0
2023-01-31T16:56:59.256Z,0
2023-01-31T16:58:15.548Z,0
2023-01-31T16:59:31.835Z,0
2023-01-31T17:00:48.131Z,0
2023-01-31T17:02:04.431Z,0
2023-01-31T17:03:20.715Z,0
2023-01-31T17:04:37.004Z,0
2023-01-31T17:05:53.303Z,0
2023-01-31T17:07:09.605Z,0
2023-01-31T17:08:24.906Z,0
2023-01-31T17:09:41.205Z,0
2023-01-31T17:10:57.511Z,0
2023-01-31T17:12:13.808Z,0
2023-01-31T17:13:30.087Z,0
2023-01-31T17:14:46.382Z,0
2023-01-31T17:16:02.675Z,0
2023-01-31T17:17:18.973Z,0
2023-01-31T17:18:35.264Z,0
2023-01-31T17:19:51.563Z,0
2023-01-31T17:21:07.852Z,0
2023-01-31T17:22:24.142Z,0
2023-01-31T17:23:40.451Z,0
2023-01-31T17:24:55.761Z,0
2023-01-31T17:26:12.057Z,0
2023-01-31T17:27:28.338Z,0
2023-01-31T17:28:44.631Z,0
2023-01-31T17:30:00.933Z,0
2023-01-31T17:31:17.217Z,0
2023-01-31T17:32:33.531Z,0
2023-01-31T17:33:49.805Z,0
2023-01-31T17:35:06.118Z,0
2023-01-31T17:36:22.395Z,0
2023-01-31T17:37:38.696Z,0
2023-01-31T17:38:54.982Z,0
2023-01-31T17:40:11.294Z,0
2023-01-31T17:41:26.592Z,0
2023-01-31T17:42:42.902Z,0
2023-01-31T17:43:59.190Z,0
2023-01-31T17:45:15.491Z,0
2023-01-31T17:46:31.781Z,0
2023-01-31T17:47:48.060Z,0
2023-01-31T17:49:04.355Z,0
2023-01-31T17:50:20.664Z,0
2023-01-31T17:51:36.950Z,0
2023-01-31T17:52:53.241Z,0
2023-01-31T17:54:09.536Z,0
2023-01-31T17:55:25.838Z,0
2023-01-31T17:56:42.136Z,0
2023-01-31T17:57:57.432Z,0
2023-01-31T17:59:13.728Z,0
2023-01-31T18:00:30.025Z,0
2023-01-31T18:01:46.315Z,0
2023-01-31T18:03:02.622Z,0
2023-01-31T18:04:18.912Z,0
2023-01-31T18:05:35.201Z,0
2023-01-31T18:06:51.490Z,0
2023-01-31T18:08:07.789Z,0
2023-01-31T18:09:24.086Z,0
2023-01-31T18:10:40.383Z,0
2023-01-31T18:11:56.679Z,0
2023-01-31T18:13:12.972Z,0
2023-01-31T18:14:28.276Z,0